createdAt,value
2022-12-22T00:00:29.277Z,6.02
2022-12-22T00:03:35.132Z,6.00
2022-12-22T00:06:20.456Z,6.01
2022-12-22T00:09:06.183Z,5.99
2022-12-22T00:11:51.460Z,5.99
2022-12-22T00:14:36.724Z,6.00
2022-12-22T00:17:22.004Z,5.98
2022-12-22T00:20:09.019Z,5.98
2022-12-22T00:22:56.478Z,5.99
2022-12-22T00:25:41.897Z,6.01
2022-12-22T00:28:31.964Z,6.00
2022-12-22T00:31:17.786Z,6.00
2022-12-22T00:34:03.065Z,5.97
2022-12-22T00:36:48.877Z,5.99
2022-12-22T00:39:34.066Z,5.99
2022-12-22T00:42:19.979Z,6.01
2022-12-22T00:45:05.230Z,6.04
2022-12-22T00:47:50.861Z,6.03
2022-12-22T00:50:36.245Z,6.02
2022-12-22T00:53:21.876Z,5.98
2022-12-22T00:56:07.247Z,5.98
2022-12-22T00:58:52.852Z,5.98
2022-12-22T01:01:38.262Z,5.99
2022-12-22T01:04:24.060Z,5.99
2022-12-22T01:07:09.394Z,6.01
2022-12-22T01:09:55.191Z,5.98
2022-12-22T01:12:42.048Z,5.94
2022-12-22T01:15:37.958Z,5.91
2022-12-22T01:18:23.776Z,5.87
2022-12-22T01:21:09.524Z,5.88
2022-12-22T01:23:55.409Z,5.91
2022-12-22T01:26:40.948Z,5.88
2022-12-22T01:29:26.403Z,5.91
2022-12-22T01:32:11.997Z,5.93
2022-12-22T01:34:57.506Z,5.89
2022-12-22T01:37:43.180Z,5.90
2022-12-22T01:40:42.275Z,5.96
2022-12-22T01:43:41.073Z,5.99
2022-12-22T01:46:59.878Z,6.00
2022-12-22T01:50:00.310Z,5.99
2022-12-22T01:52:56.189Z,5.99
2022-12-22T01:55:42.504Z,5.99
2022-12-22T01:58:36.080Z,5.90
2022-12-22T02:01:21.869Z,5.89
2022-12-22T02:04:07.132Z,5.88
2022-12-22T02:06:59.963Z,5.89
2022-12-22T02:10:09.462Z,5.94
2022-12-22T02:12:57.781Z,5.96
2022-12-22T02:16:04.172Z,5.90
2022-12-22T02:18:57.593Z,5.94
2022-12-22T02:21:43.575Z,5.92
2022-12-22T02:24:37.406Z,5.93
2022-12-22T02:27:22.644Z,5.92
2022-12-22T02:30:11.516Z,5.94
2022-12-22T02:33:02.314Z,5.93
2022-12-22T02:36:03.165Z,6.02
2022-12-22T02:39:00.954Z,5.93
2022-12-22T02:41:57.445Z,5.94
2022-12-22T02:45:01.778Z,5.93
2022-12-22T02:47:55.876Z,5.97
2022-12-22T02:50:51.949Z,6.02
2022-12-22T02:53:37.645Z,5.98
2022-12-22T02:56:26.995Z,5.99
2022-12-22T02:59:12.843Z,5.97
2022-12-22T03:01:59.289Z,6.00
2022-12-22T03:04:45.199Z,5.99
2022-12-22T03:07:30.992Z,5.98
2022-12-22T03:10:16.736Z,5.99
2022-12-22T03:13:02.111Z,5.99
2022-12-22T03:15:47.876Z,6.00
2022-12-22T03:18:33.204Z,5.99
2022-12-22T03:21:18.964Z,5.99
2022-12-22T03:24:04.300Z,5.93
2022-12-22T03:26:33.463Z,5.90
2022-12-22T03:29:00.179Z,5.91
2022-12-22T03:31:27.775Z,5.97
2022-12-22T03:33:54.794Z,6.02
2022-12-22T03:36:21.893Z,5.98
2022-12-22T03:38:48.615Z,5.91
2022-12-22T03:41:34.251Z,5.94
2022-12-22T03:44:19.753Z,5.98
2022-12-22T03:46:46.898Z,5.97
2022-12-22T03:49:13.919Z,5.99
2022-12-22T03:51:44.604Z,6.01
2022-12-22T03:54:12.851Z,6.01
2022-12-22T03:56:40.000Z,6.02
2022-12-22T03:59:06.738Z,6.03
2022-12-22T04:01:34.389Z,5.98
2022-12-22T04:04:01.211Z,5.96
2022-12-22T04:06:28.235Z,5.95
2022-12-22T04:08:55.163Z,5.98
2022-12-22T04:11:40.649Z,6.03
2022-12-22T04:14:07.548Z,6.02
2022-12-22T04:16:34.593Z,6.03
2022-12-22T04:19:01.417Z,6.03
2022-12-22T04:21:28.489Z,5.95
2022-12-22T04:23:55.391Z,5.94
2022-12-22T04:26:23.438Z,5.97
2022-12-22T04:28:50.789Z,6.01
2022-12-22T04:31:18.015Z,6.01
2022-12-22T04:33:45.122Z,6.03
2022-12-22T04:36:12.329Z,6.02
2022-12-22T04:38:39.192Z,6.02
2022-12-22T04:41:06.417Z,5.99
2022-12-22T04:43:33.344Z,6.03
2022-12-22T04:46:00.488Z,6.04
2022-12-22T04:48:28.253Z,6.04
2022-12-22T04:50:56.751Z,5.99
2022-12-22T04:53:23.621Z,5.95
2022-12-22T04:56:00.929Z,5.97
2022-12-22T04:58:28.012Z,5.98
2022-12-22T05:00:55.296Z,5.93
2022-12-22T05:03:22.232Z,5.92
2022-12-22T05:05:49.355Z,5.92
2022-12-22T05:08:16.096Z,5.97
2022-12-22T05:10:43.154Z,5.94
2022-12-22T05:13:09.990Z,5.96
2022-12-22T05:15:37.901Z,5.95
2022-12-22T05:18:04.829Z,5.95
2022-12-22T05:20:32.137Z,5.96
2022-12-22T05:22:58.978Z,5.96
2022-12-22T05:25:29.853Z,5.99
2022-12-22T05:27:59.801Z,5.99
2022-12-22T05:30:27.207Z,5.94
2022-12-22T05:32:54.018Z,5.97
2022-12-22T05:35:21.061Z,5.96
2022-12-22T05:37:47.891Z,5.95
2022-12-22T05:40:14.913Z,6.01
2022-12-22T05:42:41.624Z,6.07
2022-12-22T05:45:16.756Z,6.06
2022-12-22T05:47:47.355Z,6.01
2022-12-22T05:50:15.778Z,5.99
2022-12-22T05:52:42.656Z,6.00
2022-12-22T05:55:10.012Z,5.99
2022-12-22T05:57:36.823Z,6.01
2022-12-22T06:00:05.878Z,6.02
2022-12-22T06:02:32.877Z,6.01
2022-12-22T06:05:00.179Z,5.98
2022-12-22T06:07:26.900Z,5.95
2022-12-22T06:09:53.912Z,5.99
2022-12-22T06:12:20.728Z,6.00
2022-12-22T06:14:47.810Z,6.00
2022-12-22T06:17:14.521Z,6.01
2022-12-22T06:19:41.560Z,6.06
2022-12-22T06:22:08.366Z,6.03
2022-12-22T06:24:35.388Z,6.00
2022-12-22T06:27:02.126Z,6.02
2022-12-22T06:29:29.172Z,6.05
2022-12-22T06:31:55.911Z,6.05
2022-12-22T06:34:23.003Z,6.05
2022-12-22T06:36:49.904Z,6.03
2022-12-22T06:39:17.176Z,6.02
2022-12-22T06:42:02.521Z,6.03
2022-12-22T06:44:29.587Z,6.01
2022-12-22T06:46:56.407Z,6.01
2022-12-22T06:49:23.451Z,6.04
2022-12-22T06:51:50.163Z,6.01
2022-12-22T06:54:20.865Z,5.97
2022-12-22T06:56:52.430Z,5.98
2022-12-22T06:59:19.436Z,5.97
2022-12-22T07:01:46.243Z,5.99
2022-12-22T07:04:19.691Z,5.98
2022-12-22T07:06:47.758Z,6.01
2022-12-22T07:09:14.846Z,6.00
2022-12-22T07:11:41.675Z,5.97
2022-12-22T07:14:08.825Z,5.97
2022-12-22T07:16:35.653Z,5.99
2022-12-22T07:19:02.752Z,5.99
2022-12-22T07:21:29.553Z,6.04
2022-12-22T07:23:56.549Z,6.02
2022-12-22T07:26:23.264Z,6.02
2022-12-22T07:28:50.269Z,5.98
2022-12-22T07:31:17.726Z,6.00
2022-12-22T07:33:44.872Z,6.00
2022-12-22T07:36:12.689Z,6.00
2022-12-22T07:38:41.508Z,6.03
2022-12-22T07:41:28.945Z,6.02
2022-12-22T07:43:57.326Z,6.02
2022-12-22T07:46:24.544Z,6.01
2022-12-22T07:49:10.367Z,6.05
2022-12-22T07:51:38.312Z,6.03
2022-12-22T07:54:05.493Z,6.04
2022-12-22T07:56:32.305Z,6.06
2022-12-22T07:58:59.606Z,6.05
2022-12-22T08:01:26.457Z,6.05
2022-12-22T08:03:53.575Z,6.04
2022-12-22T08:06:20.511Z,6.06
2022-12-22T08:08:47.517Z,6.07
2022-12-22T08:11:14.358Z,6.06
2022-12-22T08:13:43.431Z,6.08
2022-12-22T08:16:11.643Z,6.05
2022-12-22T08:18:38.990Z,6.08
2022-12-22T08:21:06.166Z,6.09
2022-12-22T08:23:33.428Z,6.09
2022-12-22T08:26:07.906Z,6.10
2022-12-22T08:28:37.231Z,6.10
2022-12-22T08:31:04.140Z,6.09
2022-12-22T08:33:31.209Z,6.13
2022-12-22T08:36:02.690Z,6.11
2022-12-22T08:38:33.053Z,6.13
2022-12-22T08:40:59.766Z,6.13
2022-12-22T08:43:26.836Z,6.14
2022-12-22T08:45:53.614Z,6.17
2022-12-22T08:48:20.628Z,6.21
2022-12-22T08:50:47.322Z,6.21
2022-12-22T08:53:30.112Z,6.21
2022-12-22T08:56:01.149Z,6.24
2022-12-22T08:58:28.206Z,6.25
2022-12-22T09:00:54.959Z,6.25
2022-12-22T09:03:22.053Z,6.25
2022-12-22T09:05:48.822Z,6.27
2022-12-22T09:08:15.848Z,6.29
2022-12-22T09:10:43.968Z,6.30
2022-12-22T09:13:11.031Z,6.29
2022-12-22T09:15:37.852Z,6.34
2022-12-22T09:18:04.924Z,6.35
2022-12-22T09:20:31.966Z,6.35
2022-12-22T09:23:00.161Z,6.34
2022-12-22T09:25:27.486Z,6.35
2022-12-22T09:27:55.099Z,6.37
2022-12-22T09:30:21.850Z,6.38
2022-12-22T09:32:48.892Z,6.38
2022-12-22T09:35:15.694Z,6.36
2022-12-22T09:37:42.731Z,6.39
2022-12-22T09:40:10.087Z,6.42
2022-12-22T09:42:37.908Z,6.42
2022-12-22T09:45:05.303Z,6.41
2022-12-22T09:47:40.172Z,6.41
2022-12-22T09:50:11.984Z,6.48
2022-12-22T09:52:49.155Z,6.46
2022-12-22T09:55:25.935Z,6.48
2022-12-22T09:57:56.575Z,6.51
2022-12-22T10:00:28.320Z,6.51
2022-12-22T10:03:31.296Z,6.54
2022-12-22T10:06:28.425Z,6.55
2022-12-22T10:08:55.790Z,6.57
2022-12-22T10:11:22.653Z,6.60
2022-12-22T10:13:49.761Z,6.62
2022-12-22T10:16:21.907Z,6.63
2022-12-22T10:19:16.058Z,6.63
2022-12-22T10:21:46.936Z,6.64
2022-12-22T10:24:33.148Z,6.66
2022-12-22T10:26:59.890Z,6.64
2022-12-22T10:29:26.977Z,6.73
2022-12-22T10:32:05.003Z,6.74
2022-12-22T10:34:32.162Z,6.72
2022-12-22T10:37:00.331Z,6.75
2022-12-22T10:39:29.298Z,6.74
2022-12-22T10:42:08.522Z,6.75
2022-12-22T10:44:37.256Z,6.74
2022-12-22T10:47:20.449Z,6.78
2022-12-22T10:49:48.933Z,6.79
2022-12-22T10:52:31.035Z,6.81
2022-12-22T10:55:18.466Z,6.83
2022-12-22T10:57:45.261Z,6.82
2022-12-22T11:00:23.587Z,6.84
2022-12-22T11:03:11.921Z,6.83
2022-12-22T11:05:39.136Z,6.83
2022-12-22T11:08:18.987Z,6.87
2022-12-22T11:11:12.529Z,6.87
2022-12-22T11:13:39.374Z,6.88
2022-12-22T11:16:19.874Z,6.88
2022-12-22T11:18:52.632Z,6.90
2022-12-22T11:21:28.860Z,6.85
2022-12-22T11:24:07.702Z,6.91
2022-12-22T11:26:58.036Z,6.88
2022-12-22T11:30:04.735Z,6.93
2022-12-22T11:32:53.971Z,6.93
2022-12-22T11:35:33.007Z,6.90
2022-12-22T11:38:22.106Z,6.93
2022-12-22T11:40:53.460Z,6.95
2022-12-22T11:44:22.221Z,6.91
2022-12-22T11:46:58.101Z,6.92
2022-12-22T11:49:38.079Z,6.94
2022-12-22T11:52:10.838Z,6.95
2022-12-22T11:55:11.802Z,6.97
2022-12-22T11:57:49.306Z,6.94
2022-12-22T12:00:17.326Z,6.96
2022-12-22T12:03:09.008Z,6.92
2022-12-22T12:06:30.277Z,6.96
2022-12-22T12:09:26.037Z,6.94
2022-12-22T12:12:09.492Z,6.95
2022-12-22T12:14:46.271Z,6.95
2022-12-22T12:17:20.930Z,6.98
2022-12-22T12:20:00.503Z,6.97
2022-12-22T12:22:32.419Z,6.98
2022-12-22T12:25:03.593Z,6.99
2022-12-22T12:27:42.956Z,6.96
2022-12-22T12:33:37.018Z,6.96
2022-12-22T12:36:33.104Z,7.00
2022-12-22T12:39:08.014Z,6.95
2022-12-22T12:42:01.376Z,6.97
2022-12-22T12:44:31.471Z,6.99
2022-12-22T12:47:04.913Z,6.99
2022-12-22T12:49:38.637Z,6.98
2022-12-22T12:52:09.203Z,6.97
2022-12-22T12:54:40.279Z,6.98
2022-12-22T12:57:07.186Z,7.02
2022-12-22T12:59:40.299Z,7.02
2022-12-22T13:02:29.726Z,7.02
2022-12-22T13:05:13.903Z,7.02
2022-12-22T13:08:09.561Z,7.01
2022-12-22T13:10:44.619Z,7.03
2022-12-22T13:13:23.910Z,7.03
2022-12-22T13:16:00.308Z,7.08
2022-12-22T13:18:49.729Z,7.00
2022-12-22T13:24:25.908Z,7.05
2022-12-22T13:26:55.353Z,7.03
2022-12-22T13:29:22.156Z,7.00
2022-12-22T13:31:57.905Z,7.05
2022-12-22T13:35:04.959Z,7.06
2022-12-22T13:37:30.423Z,7.05
2022-12-22T13:40:10.489Z,7.09
2022-12-22T13:42:39.379Z,7.07
2022-12-22T13:45:12.146Z,7.06
2022-12-22T13:47:42.978Z,7.04
2022-12-22T13:50:20.011Z,7.06
2022-12-22T13:52:47.111Z,7.06
2022-12-22T13:55:15.644Z,7.05
2022-12-22T13:57:42.774Z,7.07
2022-12-22T14:00:27.803Z,7.10
2022-12-22T14:02:55.019Z,7.04
2022-12-22T14:05:22.107Z,7.11
2022-12-22T14:07:59.150Z,7.10
2022-12-22T14:10:28.250Z,7.12
2022-12-22T14:12:55.325Z,7.10
2022-12-22T14:15:22.172Z,7.12
2022-12-22T14:17:52.842Z,7.11
2022-12-22T14:20:35.720Z,7.12
2022-12-22T14:23:13.692Z,7.13
2022-12-22T14:25:41.505Z,7.11
2022-12-22T14:28:33.492Z,7.16
2022-12-22T14:31:08.467Z,7.12
2022-12-22T14:33:35.501Z,7.10
2022-12-22T14:36:19.366Z,7.13
2022-12-22T14:38:48.565Z,7.13
2022-12-22T14:41:42.905Z,7.18
2022-12-22T14:44:24.703Z,7.13
2022-12-22T14:47:20.580Z,7.15
2022-12-22T14:49:50.616Z,7.16
2022-12-22T14:52:33.260Z,7.18
2022-12-22T14:55:00.374Z,7.21
2022-12-22T14:57:38.478Z,7.18
2022-12-22T15:00:08.315Z,7.19
2022-12-22T15:02:40.594Z,7.19
2022-12-22T15:05:15.901Z,7.16
2022-12-22T15:10:40.232Z,7.21
2022-12-22T15:13:11.655Z,7.20
2022-12-22T15:15:38.695Z,7.19
2022-12-22T15:18:05.766Z,7.22
2022-12-22T15:20:38.972Z,7.21
2022-12-22T15:23:18.579Z,7.21
2022-12-22T15:25:45.874Z,7.21
2022-12-22T15:28:12.863Z,7.22
2022-12-22T15:30:40.017Z,7.22
2022-12-22T15:33:14.351Z,7.23
2022-12-22T15:35:41.524Z,7.29
2022-12-22T15:38:24.434Z,7.30
2022-12-22T15:40:51.682Z,7.31
2022-12-22T15:43:54.091Z,7.30
2022-12-22T15:46:06.245Z,7.27
2022-12-22T15:48:34.673Z,7.28
2022-12-22T15:51:05.979Z,7.29
2022-12-22T15:53:33.139Z,7.28
2022-12-22T15:56:00.325Z,7.28
2022-12-22T15:58:29.297Z,7.28
2022-12-22T16:00:56.640Z,7.29
2022-12-22T16:03:23.612Z,7.27
2022-12-22T16:05:52.789Z,7.37
2022-12-22T16:08:22.921Z,7.48
2022-12-22T16:10:49.955Z,7.40
2022-12-22T16:13:16.850Z,7.37
2022-12-22T16:15:43.943Z,7.36
2022-12-22T16:18:11.138Z,7.34
2022-12-22T16:20:41.515Z,7.35
2022-12-22T16:23:16.292Z,7.34
2022-12-22T16:25:43.936Z,7.33
2022-12-22T16:28:19.064Z,7.34
2022-12-22T16:30:46.233Z,7.34
2022-12-22T16:33:13.362Z,7.33
2022-12-22T16:35:40.602Z,7.30
2022-12-22T16:38:08.842Z,7.32
2022-12-22T16:40:46.744Z,7.29
2022-12-22T16:46:17.108Z,7.30
2022-12-22T16:48:49.722Z,7.31
2022-12-22T16:51:25.441Z,7.29
2022-12-22T16:53:52.493Z,7.30
2022-12-22T16:56:22.509Z,7.27
2022-12-22T16:58:49.415Z,7.28
2022-12-22T17:01:40.747Z,7.31
2022-12-22T17:04:13.638Z,7.28
2022-12-22T17:06:41.036Z,7.26
2022-12-22T17:09:11.884Z,7.27
2022-12-22T17:11:38.989Z,7.26
2022-12-22T17:14:31.337Z,7.26
2022-12-22T17:16:58.679Z,7.27
2022-12-22T17:19:25.512Z,7.28
2022-12-22T17:21:53.403Z,7.23
2022-12-22T17:24:25.910Z,7.26
2022-12-22T17:26:55.124Z,7.24
2022-12-22T17:29:23.609Z,7.27
2022-12-22T17:31:51.998Z,7.31
2022-12-22T17:34:18.942Z,7.43
2022-12-22T17:36:46.993Z,7.42
2022-12-22T17:39:14.630Z,7.51
2022-12-22T17:41:41.715Z,7.51
2022-12-22T17:44:19.679Z,7.56
2022-12-22T17:46:47.476Z,7.50
2022-12-22T17:49:14.755Z,7.47
2022-12-22T17:51:41.989Z,7.42
2022-12-22T17:54:18.119Z,7.49
2022-12-22T17:56:45.243Z,7.54
2022-12-22T17:59:12.232Z,7.49
2022-12-22T18:01:40.281Z,7.45
2022-12-22T18:04:10.208Z,7.41
2022-12-22T18:06:39.645Z,7.41
2022-12-22T18:09:06.891Z,7.39
2022-12-22T18:11:34.469Z,7.38
2022-12-22T18:14:01.326Z,7.41
2022-12-22T18:16:29.765Z,7.41
2022-12-22T18:18:56.739Z,7.35
2022-12-22T18:21:24.307Z,7.37
2022-12-22T18:23:51.385Z,7.38
2022-12-22T18:26:28.997Z,7.40
2022-12-22T18:28:55.921Z,7.40
2022-12-22T18:31:23.610Z,7.44
2022-12-22T18:33:51.054Z,7.43
2022-12-22T18:36:30.291Z,7.39
2022-12-22T18:38:57.336Z,7.40
2022-12-22T18:41:24.752Z,7.41
2022-12-22T18:43:51.547Z,7.43
2022-12-22T18:46:19.082Z,7.45
2022-12-22T18:48:45.942Z,7.49
2022-12-22T18:51:21.850Z,7.47
2022-12-22T18:53:51.658Z,7.45
2022-12-22T18:56:18.884Z,7.45
2022-12-22T18:58:46.287Z,7.49
2022-12-22T19:01:24.046Z,7.49
2022-12-22T19:03:51.551Z,7.48
2022-12-22T19:06:20.514Z,7.45
2022-12-22T19:08:48.258Z,7.49
2022-12-22T19:11:16.497Z,7.50
2022-12-22T19:13:45.240Z,7.47
2022-12-22T19:16:17.934Z,7.52
2022-12-22T19:18:44.874Z,7.50
2022-12-22T19:21:16.217Z,7.47
2022-12-22T19:23:43.999Z,7.45
2022-12-22T19:26:24.578Z,7.44
2022-12-22T19:28:52.636Z,7.50
2022-12-22T19:31:25.286Z,7.50
2022-12-22T19:33:52.199Z,7.52
2022-12-22T19:36:26.841Z,7.52
2022-12-22T19:39:02.766Z,7.52
2022-12-22T19:41:31.366Z,7.53
2022-12-22T19:43:58.184Z,7.55
2022-12-22T19:46:25.755Z,7.58
2022-12-22T19:48:52.618Z,7.58
2022-12-22T19:51:19.721Z,7.56
2022-12-22T19:53:46.511Z,7.58
2022-12-22T19:56:22.910Z,7.56
2022-12-22T19:58:50.169Z,7.57
2022-12-22T20:01:17.289Z,7.58
2022-12-22T20:03:44.429Z,7.56
2022-12-22T20:06:11.717Z,7.57
2022-12-22T20:08:38.591Z,7.58
2022-12-22T20:11:14.933Z,7.57
2022-12-22T20:13:42.080Z,7.57
2022-12-22T20:16:16.381Z,7.58
2022-12-22T20:18:43.601Z,7.54
2022-12-22T20:21:13.460Z,7.55
2022-12-22T20:23:40.343Z,7.58
2022-12-22T20:26:12.060Z,7.59
2022-12-22T20:28:39.541Z,7.56
2022-12-22T20:31:07.517Z,7.55
2022-12-22T20:33:35.051Z,7.57
2022-12-22T20:36:02.606Z,7.61
2022-12-22T20:38:37.801Z,7.58
2022-12-22T20:41:06.225Z,7.61
2022-12-22T20:43:33.235Z,7.59
2022-12-22T20:46:07.342Z,7.63
2022-12-22T20:49:04.526Z,7.58
2022-12-22T20:51:33.024Z,7.58
2022-12-22T20:54:00.084Z,7.56
2022-12-22T20:56:30.207Z,7.57
2022-12-22T20:58:57.667Z,7.55
2022-12-22T21:01:24.953Z,7.57
2022-12-22T21:03:52.158Z,7.57
2022-12-22T21:06:27.413Z,7.58
2022-12-22T21:08:55.376Z,7.57
2022-12-22T21:11:22.673Z,7.61
2022-12-22T21:13:49.907Z,7.61
2022-12-22T21:16:18.659Z,7.65
2022-12-22T21:18:45.693Z,7.64
2022-12-22T21:21:12.962Z,7.63
2022-12-22T21:23:39.866Z,7.66
2022-12-22T21:26:36.185Z,7.68
2022-12-22T21:29:06.633Z,7.67
2022-12-22T21:31:33.916Z,7.69
2022-12-22T21:34:00.789Z,7.68
2022-12-22T21:36:29.196Z,7.72
2022-12-22T21:38:58.711Z,7.69
2022-12-22T21:41:44.310Z,7.68
2022-12-22T21:44:12.671Z,7.68
2022-12-22T21:46:44.011Z,7.67
2022-12-22T21:49:19.946Z,7.75
2022-12-22T21:51:47.848Z,7.69
2022-12-22T21:54:15.043Z,7.71
2022-12-22T21:56:42.154Z,7.75
2022-12-22T21:59:08.969Z,7.73
2022-12-22T22:01:36.164Z,7.75
2022-12-22T22:04:03.152Z,7.73
2022-12-22T22:06:30.313Z,7.75
2022-12-22T22:08:57.158Z,7.76
2022-12-22T22:11:25.432Z,7.78
2022-12-22T22:13:52.912Z,7.82
2022-12-22T22:16:20.098Z,7.77
2022-12-22T22:18:47.503Z,7.82
2022-12-22T22:21:15.417Z,7.81
2022-12-22T22:23:42.344Z,7.86
2022-12-22T22:26:10.171Z,7.83
2022-12-22T22:28:37.017Z,7.84
2022-12-22T22:31:09.291Z,7.86
2022-12-22T22:33:36.206Z,7.83
2022-12-22T22:36:07.512Z,7.87
2022-12-22T22:38:34.509Z,7.86
2022-12-22T22:41:01.661Z,7.86
2022-12-22T22:43:28.460Z,7.86
2022-12-22T22:45:55.525Z,7.91
2022-12-22T22:48:22.766Z,7.90
2022-12-22T22:50:50.491Z,7.89
2022-12-22T22:53:17.248Z,7.91
2022-12-22T22:55:44.369Z,7.91
2022-12-22T22:58:11.669Z,7.92
2022-12-22T23:00:39.134Z,7.88
2022-12-22T23:03:06.049Z,7.90
2022-12-22T23:05:33.375Z,7.94
2022-12-22T23:08:00.145Z,7.94
2022-12-22T23:10:27.231Z,7.94
2022-12-22T23:12:54.605Z,7.97
2022-12-22T23:15:21.722Z,7.95
2022-12-22T23:17:52.433Z,7.94
2022-12-22T23:20:19.534Z,7.98
2022-12-22T23:22:46.310Z,7.97
2022-12-22T23:25:14.449Z,7.95
2022-12-22T23:27:41.153Z,7.94
2022-12-22T23:30:08.934Z,7.96
2022-12-22T23:32:35.705Z,7.95
2022-12-22T23:35:02.772Z,7.96
2022-12-22T23:37:29.552Z,7.97
2022-12-22T23:40:10.790Z,7.96
2022-12-22T23:42:43.426Z,7.97
2022-12-22T23:45:10.712Z,7.95
2022-12-22T23:47:37.471Z,7.96
2022-12-22T23:50:04.822Z,7.98
2022-12-22T23:52:31.599Z,7.96
2022-12-22T23:54:58.716Z,7.97
2022-12-22T23:57:25.508Z,7.96
2022-12-22T23:59:52.579Z,7.99
